sensor_id;sensor_type;location;lat;lon;timestamp;P1;durP1;ratioP1;P2;durP2;ratioP2
47287;SDS011;33020;53.008;13.558;2023-07-02T00:00:04;3.47;;;3.05;;
47287;SDS011;33020;53.008;13.558;2023-07-02T00:02:33;2.95;;;2.50;;
47287;SDS011;33020;53.008;13.558;2023-07-02T00:05:00;3.38;;;2.50;;
47287;SDS011;33020;53.008;13.558;2023-07-02T00:07:26;3.15;;;2.70;;
47287;SDS011;33020;53.008;13.558;2023-07-02T00:09:54;3.47;;;2.58;;
47287;SDS011;33020;53.008;13.558;2023-07-02T00:12:20;3.55;;;2.60;;
47287;SDS011;33020;53.008;13.558;2023-07-02T00:14:47;4.15;;;2.88;;
47287;SDS011;33020;53.008;13.558;2023-07-02T00:17:14;3.13;;;2.75;;
47287;SDS011;33020;53.008;13.558;2023-07-02T00:19:41;3.85;;;3.30;;
47287;SDS011;33020;53.008;13.558;2023-07-02T00:22:08;5.10;;;3.50;;
47287;SDS011;33020;53.008;13.558;2023-07-02T00:24:36;4.18;;;3.65;;
47287;SDS011;33020;53.008;13.558;2023-07-02T00:27:03;3.50;;;3.20;;
47287;SDS011;33020;53.008;13.558;2023-07-02T00:29:30;3.33;;;3.03;;
47287;SDS011;33020;53.008;13.558;2023-07-02T00:31:56;4.40;;;2.92;;
47287;SDS011;33020;53.008;13.558;2023-07-02T00:34:24;4.70;;;3.28;;
47287;SDS011;33020;53.008;13.558;2023-07-02T00:36:51;6.35;;;3.40;;
47287;SDS011;33020;53.008;13.558;2023-07-02T00:39:19;4.75;;;3.25;;
47287;SDS011;33020;53.008;13.558;2023-07-02T00:41:46;5.57;;;3.25;;
47287;SDS011;33020;53.008;13.558;2023-07-02T00:44:13;3.80;;;3.40;;
47287;SDS011;33020;53.008;13.558;2023-07-02T00:46:40;4.07;;;3.00;;
47287;SDS011;33020;53.008;13.558;2023-07-02T00:49:07;4.55;;;3.25;;
47287;SDS011;33020;53.008;13.558;2023-07-02T00:51:34;4.75;;;3.83;;
47287;SDS011;33020;53.008;13.558;2023-07-02T00:54:01;6.35;;;3.63;;
47287;SDS011;33020;53.008;13.558;2023-07-02T00:56:28;6.30;;;3.40;;
47287;SDS011;33020;53.008;13.558;2023-07-02T00:58:54;4.05;;;3.65;;
47287;SDS011;33020;53.008;13.558;2023-07-02T01:01:25;5.55;;;4.22;;
47287;SDS011;33020;53.008;13.558;2023-07-02T01:06:29;4.45;;;3.28;;
47287;SDS011;33020;53.008;13.558;2023-07-02T01:08:57;4.97;;;3.80;;
47287;SDS011;33020;53.008;13.558;2023-07-02T01:11:26;4.70;;;3.67;;
47287;SDS011;33020;53.008;13.558;2023-07-02T01:13:56;4.38;;;3.85;;
47287;SDS011;33020;53.008;13.558;2023-07-02T01:16:28;4.38;;;3.17;;
47287;SDS011;33020;53.008;13.558;2023-07-02T01:18:57;4.32;;;3.22;;
47287;SDS011;33020;53.008;13.558;2023-07-02T01:21:24;4.72;;;3.60;;
47287;SDS011;33020;53.008;13.558;2023-07-02T01:23:51;5.80;;;4.00;;
47287;SDS011;33020;53.008;13.558;2023-07-02T01:26:18;4.57;;;3.65;;
47287;SDS011;33020;53.008;13.558;2023-07-02T01:28:45;6.85;;;4.25;;
47287;SDS011;33020;53.008;13.558;2023-07-02T01:31:12;4.45;;;3.90;;
47287;SDS011;33020;53.008;13.558;2023-07-02T01:33:38;4.38;;;3.72;;
47287;SDS011;33020;53.008;13.558;2023-07-02T01:36:05;6.75;;;4.35;;
47287;SDS011;33020;53.008;13.558;2023-07-02T01:38:32;5.30;;;4.72;;
47287;SDS011;33020;53.008;13.558;2023-07-02T01:40:58;5.70;;;4.57;;
47287;SDS011;33020;53.008;13.558;2023-07-02T01:43:25;4.60;;;4.10;;
47287;SDS011;33020;53.008;13.558;2023-07-02T01:45:52;5.68;;;4.10;;
47287;SDS011;33020;53.008;13.558;2023-07-02T01:48:19;6.38;;;3.97;;
47287;SDS011;33020;53.008;13.558;2023-07-02T01:50:46;4.40;;;4.00;;
47287;SDS011;33020;53.008;13.558;2023-07-02T01:53:13;5.32;;;4.40;;
47287;SDS011;33020;53.008;13.558;2023-07-02T01:55:40;6.10;;;4.03;;
47287;SDS011;33020;53.008;13.558;2023-07-02T01:58:06;7.40;;;4.65;;
47287;SDS011;33020;53.008;13.558;2023-07-02T02:00:33;6.32;;;4.32;;
47287;SDS011;33020;53.008;13.558;2023-07-02T02:03:00;7.60;;;4.60;;
47287;SDS011;33020;53.008;13.558;2023-07-02T02:05:27;5.00;;;3.92;;
47287;SDS011;33020;53.008;13.558;2023-07-02T02:07:54;4.45;;;3.97;;
47287;SDS011;33020;53.008;13.558;2023-07-02T02:10:21;5.95;;;4.43;;
47287;SDS011;33020;53.008;13.558;2023-07-02T02:12:47;7.35;;;4.60;;
47287;SDS011;33020;53.008;13.558;2023-07-02T02:15:14;6.22;;;5.05;;
47287;SDS011;33020;53.008;13.558;2023-07-02T02:17:41;6.22;;;4.50;;
47287;SDS011;33020;53.008;13.558;2023-07-02T02:20:08;8.05;;;4.90;;
47287;SDS011;33020;53.008;13.558;2023-07-02T02:22:35;6.78;;;4.72;;
47287;SDS011;33020;53.008;13.558;2023-07-02T02:25:02;5.53;;;4.50;;
47287;SDS011;33020;53.008;13.558;2023-07-02T02:27:30;8.15;;;5.85;;
47287;SDS011;33020;53.008;13.558;2023-07-02T02:29:58;6.03;;;4.72;;
47287;SDS011;33020;53.008;13.558;2023-07-02T02:32:25;5.95;;;5.35;;
47287;SDS011;33020;53.008;13.558;2023-07-02T02:34:51;7.43;;;5.30;;
47287;SDS011;33020;53.008;13.558;2023-07-02T02:37:20;7.10;;;4.80;;
47287;SDS011;33020;53.008;13.558;2023-07-02T02:39:47;5.57;;;4.43;;
47287;SDS011;33020;53.008;13.558;2023-07-02T02:42:14;5.47;;;4.97;;
47287;SDS011;33020;53.008;13.558;2023-07-02T02:44:41;5.47;;;4.80;;
47287;SDS011;33020;53.008;13.558;2023-07-02T02:47:07;7.45;;;4.95;;
47287;SDS011;33020;53.008;13.558;2023-07-02T02:49:36;5.13;;;4.57;;
47287;SDS011;33020;53.008;13.558;2023-07-02T02:52:04;8.15;;;6.05;;
47287;SDS011;33020;53.008;13.558;2023-07-02T02:54:30;6.30;;;5.40;;
47287;SDS011;33020;53.008;13.558;2023-07-02T02:56:57;6.55;;;5.65;;
47287;SDS011;33020;53.008;13.558;2023-07-02T02:59:24;8.43;;;6.03;;
47287;SDS011;33020;53.008;13.558;2023-07-02T03:01:52;6.22;;;5.05;;
47287;SDS011;33020;53.008;13.558;2023-07-02T03:04:19;7.75;;;5.20;;
47287;SDS011;33020;53.008;13.558;2023-07-02T03:06:50;7.45;;;5.72;;
47287;SDS011;33020;53.008;13.558;2023-07-02T03:09:19;7.40;;;6.03;;
47287;SDS011;33020;53.008;13.558;2023-07-02T03:11:46;6.35;;;5.55;;
47287;SDS011;33020;53.008;13.558;2023-07-02T03:14:14;8.90;;;5.68;;
47287;SDS011;33020;53.008;13.558;2023-07-02T03:16:42;6.15;;;5.30;;
47287;SDS011;33020;53.008;13.558;2023-07-02T03:19:11;14.63;;;6.30;;
47287;SDS011;33020;53.008;13.558;2023-07-02T03:21:44;7.22;;;6.45;;
47287;SDS011;33020;53.008;13.558;2023-07-02T03:24:11;7.38;;;6.40;;
47287;SDS011;33020;53.008;13.558;2023-07-02T03:26:40;9.60;;;7.68;;
47287;SDS011;33020;53.008;13.558;2023-07-02T03:29:07;8.25;;;6.13;;
47287;SDS011;33020;53.008;13.558;2023-07-02T03:31:34;8.90;;;6.45;;
47287;SDS011;33020;53.008;13.558;2023-07-02T03:34:06;9.25;;;6.72;;
47287;SDS011;33020;53.008;13.558;2023-07-02T03:36:34;9.85;;;6.57;;
47287;SDS011;33020;53.008;13.558;2023-07-02T03:39:01;10.50;;;5.97;;
47287;SDS011;33020;53.008;13.558;2023-07-02T03:41:28;7.80;;;6.55;;
47287;SDS011;33020;53.008;13.558;2023-07-02T03:43:55;9.10;;;6.95;;
47287;SDS011;33020;53.008;13.558;2023-07-02T03:46:22;7.38;;;6.68;;
47287;SDS011;33020;53.008;13.558;2023-07-02T03:48:48;8.73;;;6.63;;
47287;SDS011;33020;53.008;13.558;2023-07-02T03:51:15;8.55;;;7.10;;
47287;SDS011;33020;53.008;13.558;2023-07-02T03:53:42;8.30;;;6.88;;
47287;SDS011;33020;53.008;13.558;2023-07-02T03:56:09;8.77;;;6.78;;
47287;SDS011;33020;53.008;13.558;2023-07-02T03:58:35;7.38;;;6.50;;
47287;SDS011;33020;53.008;13.558;2023-07-02T04:01:02;8.65;;;6.57;;
47287;SDS011;33020;53.008;13.558;2023-07-02T04:03:29;7.95;;;6.80;;
47287;SDS011;33020;53.008;13.558;2023-07-02T04:05:56;9.63;;;6.70;;
47287;SDS011;33020;53.008;13.558;2023-07-02T04:08:23;10.60;;;7.03;;
47287;SDS011;33020;53.008;13.558;2023-07-02T04:10:51;8.80;;;6.53;;
47287;SDS011;33020;53.008;13.558;2023-07-02T04:13:18;10.63;;;7.07;;
47287;SDS011;33020;53.008;13.558;2023-07-02T04:15:44;7.47;;;6.20;;
47287;SDS011;33020;53.008;13.558;2023-07-02T04:18:11;8.60;;;7.00;;
47287;SDS011;33020;53.008;13.558;2023-07-02T04:20:38;8.43;;;6.13;;
47287;SDS011;33020;53.008;13.558;2023-07-02T04:23:05;7.47;;;6.07;;
47287;SDS011;33020;53.008;13.558;2023-07-02T04:25:33;8.52;;;7.07;;
47287;SDS011;33020;53.008;13.558;2023-07-02T04:28:20;8.88;;;6.53;;
47287;SDS011;33020;53.008;13.558;2023-07-02T04:30:46;8.63;;;6.32;;
47287;SDS011;33020;53.008;13.558;2023-07-02T04:33:16;7.05;;;6.10;;
47287;SDS011;33020;53.008;13.558;2023-07-02T04:35:44;8.60;;;6.22;;
47287;SDS011;33020;53.008;13.558;2023-07-02T04:38:11;7.82;;;6.88;;
47287;SDS011;33020;53.008;13.558;2023-07-02T04:40:38;8.43;;;6.78;;
47287;SDS011;33020;53.008;13.558;2023-07-02T04:43:05;7.70;;;6.85;;
47287;SDS011;33020;53.008;13.558;2023-07-02T04:45:32;6.55;;;5.93;;
47287;SDS011;33020;53.008;13.558;2023-07-02T04:48:03;10.85;;;7.30;;
47287;SDS011;33020;53.008;13.558;2023-07-02T04:50:30;7.20;;;6.18;;
47287;SDS011;33020;53.008;13.558;2023-07-02T04:52:57;7.72;;;6.47;;
47287;SDS011;33020;53.008;13.558;2023-07-02T04:55:24;6.95;;;6.25;;
47287;SDS011;33020;53.008;13.558;2023-07-02T04:57:51;8.02;;;6.47;;
47287;SDS011;33020;53.008;13.558;2023-07-02T05:00:18;9.23;;;6.63;;
47287;SDS011;33020;53.008;13.558;2023-07-02T05:02:45;7.45;;;5.82;;
47287;SDS011;33020;53.008;13.558;2023-07-02T05:05:12;10.27;;;6.22;;
47287;SDS011;33020;53.008;13.558;2023-07-02T05:07:40;7.43;;;6.15;;
47287;SDS011;33020;53.008;13.558;2023-07-02T05:10:07;6.75;;;5.55;;
47287;SDS011;33020;53.008;13.558;2023-07-02T05:12:34;8.57;;;5.78;;
47287;SDS011;33020;53.008;13.558;2023-07-02T05:15:01;10.35;;;5.53;;
47287;SDS011;33020;53.008;13.558;2023-07-02T05:17:28;8.73;;;5.22;;
47287;SDS011;33020;53.008;13.558;2023-07-02T05:19:56;8.85;;;5.07;;
47287;SDS011;33020;53.008;13.558;2023-07-02T05:22:23;7.70;;;4.38;;
47287;SDS011;33020;53.008;13.558;2023-07-02T05:24:50;9.52;;;4.85;;
47287;SDS011;33020;53.008;13.558;2023-07-02T05:27:17;8.30;;;4.70;;
47287;SDS011;33020;53.008;13.558;2023-07-02T05:29:43;6.68;;;4.68;;
47287;SDS011;33020;53.008;13.558;2023-07-02T05:32:10;6.57;;;4.30;;
47287;SDS011;33020;53.008;13.558;2023-07-02T05:34:37;5.80;;;4.70;;
47287;SDS011;33020;53.008;13.558;2023-07-02T05:37:05;8.57;;;4.90;;
47287;SDS011;33020;53.008;13.558;2023-07-02T05:39:33;7.22;;;5.05;;
47287;SDS011;33020;53.008;13.558;2023-07-02T05:42:00;7.35;;;4.88;;
47287;SDS011;33020;53.008;13.558;2023-07-02T05:44:27;6.90;;;5.03;;
47287;SDS011;33020;53.008;13.558;2023-07-02T05:46:54;7.03;;;4.80;;
47287;SDS011;33020;53.008;13.558;2023-07-02T05:49:21;6.70;;;5.25;;
47287;SDS011;33020;53.008;13.558;2023-07-02T05:51:48;5.53;;;4.60;;
47287;SDS011;33020;53.008;13.558;2023-07-02T05:54:15;8.07;;;4.93;;
47287;SDS011;33020;53.008;13.558;2023-07-02T05:56:41;6.53;;;4.80;;
47287;SDS011;33020;53.008;13.558;2023-07-02T05:59:08;7.15;;;4.97;;
47287;SDS011;33020;53.008;13.558;2023-07-02T06:01:36;9.77;;;5.60;;
47287;SDS011;33020;53.008;13.558;2023-07-02T06:04:03;6.60;;;5.22;;
47287;SDS011;33020;53.008;13.558;2023-07-02T06:06:30;6.50;;;5.20;;
47287;SDS011;33020;53.008;13.558;2023-07-02T06:08:57;9.02;;;5.00;;
47287;SDS011;33020;53.008;13.558;2023-07-02T06:11:24;7.35;;;5.53;;
47287;SDS011;33020;53.008;13.558;2023-07-02T06:13:51;9.02;;;5.10;;
47287;SDS011;33020;53.008;13.558;2023-07-02T06:16:18;5.95;;;5.20;;
47287;SDS011;33020;53.008;13.558;2023-07-02T06:18:46;6.32;;;4.57;;
47287;SDS011;33020;53.008;13.558;2023-07-02T06:21:12;8.75;;;5.05;;
47287;SDS011;33020;53.008;13.558;2023-07-02T06:23:42;6.03;;;3.95;;
47287;SDS011;33020;53.008;13.558;2023-07-02T06:26:10;6.13;;;4.53;;
47287;SDS011;33020;53.008;13.558;2023-07-02T06:28:37;4.57;;;4.05;;
47287;SDS011;33020;53.008;13.558;2023-07-02T06:31:05;6.57;;;4.07;;
47287;SDS011;33020;53.008;13.558;2023-07-02T06:33:32;4.05;;;3.65;;
47287;SDS011;33020;53.008;13.558;2023-07-02T06:35:58;5.38;;;3.50;;
47287;SDS011;33020;53.008;13.558;2023-07-02T06:38:25;5.88;;;3.72;;
47287;SDS011;33020;53.008;13.558;2023-07-02T06:40:52;6.05;;;3.92;;
47287;SDS011;33020;53.008;13.558;2023-07-02T06:43:19;5.68;;;3.75;;
47287;SDS011;33020;53.008;13.558;2023-07-02T06:45:46;6.43;;;3.63;;
47287;SDS011;33020;53.008;13.558;2023-07-02T06:48:13;6.45;;;3.63;;
47287;SDS011;33020;53.008;13.558;2023-07-02T06:50:44;6.70;;;4.28;;
47287;SDS011;33020;53.008;13.558;2023-07-02T06:53:12;5.55;;;3.75;;
47287;SDS011;33020;53.008;13.558;2023-07-02T06:55:39;5.47;;;3.35;;
47287;SDS011;33020;53.008;13.558;2023-07-02T06:58:06;6.95;;;3.63;;
47287;SDS011;33020;53.008;13.558;2023-07-02T07:00:33;5.75;;;3.35;;
47287;SDS011;33020;53.008;13.558;2023-07-02T07:03:03;5.70;;;3.72;;
47287;SDS011;33020;53.008;13.558;2023-07-02T07:05:31;5.65;;;3.33;;
47287;SDS011;33020;53.008;13.558;2023-07-02T07:08:01;6.50;;;3.80;;
47287;SDS011;33020;53.008;13.558;2023-07-02T07:10:28;8.30;;;3.78;;
47287;SDS011;33020;53.008;13.558;2023-07-02T07:13:01;5.95;;;3.85;;
47287;SDS011;33020;53.008;13.558;2023-07-02T07:15:32;4.85;;;3.67;;
47287;SDS011;33020;53.008;13.558;2023-07-02T07:18:00;6.55;;;3.63;;
47287;SDS011;33020;53.008;13.558;2023-07-02T07:20:27;7.40;;;3.67;;
47287;SDS011;33020;53.008;13.558;2023-07-02T07:22:54;5.57;;;3.15;;
47287;SDS011;33020;53.008;13.558;2023-07-02T07:25:21;5.60;;;3.47;;
47287;SDS011;33020;53.008;13.558;2023-07-02T07:27:48;8.50;;;3.45;;
47287;SDS011;33020;53.008;13.558;2023-07-02T07:30:15;5.65;;;3.67;;
47287;SDS011;33020;53.008;13.558;2023-07-02T07:32:42;6.13;;;3.60;;
47287;SDS011;33020;53.008;13.558;2023-07-02T07:35:08;6.40;;;3.83;;
47287;SDS011;33020;53.008;13.558;2023-07-02T07:37:35;5.97;;;3.83;;
47287;SDS011;33020;53.008;13.558;2023-07-02T07:40:22;6.63;;;3.97;;
47287;SDS011;33020;53.008;13.558;2023-07-02T07:42:49;5.38;;;3.45;;
47287;SDS011;33020;53.008;13.558;2023-07-02T07:45:16;4.45;;;3.05;;
47287;SDS011;33020;53.008;13.558;2023-07-02T07:47:43;7.47;;;3.42;;
47287;SDS011;33020;53.008;13.558;2023-07-02T07:50:10;6.55;;;3.20;;
47287;SDS011;33020;53.008;13.558;2023-07-02T07:52:41;7.13;;;3.42;;
47287;SDS011;33020;53.008;13.558;2023-07-02T07:55:08;5.90;;;3.83;;
47287;SDS011;33020;53.008;13.558;2023-07-02T07:57:36;7.32;;;3.15;;
47287;SDS011;33020;53.008;13.558;2023-07-02T08:00:04;5.40;;;3.83;;
47287;SDS011;33020;53.008;13.558;2023-07-02T08:02:33;8.10;;;3.58;;
47287;SDS011;33020;53.008;13.558;2023-07-02T08:05:00;4.32;;;3.30;;
47287;SDS011;33020;53.008;13.558;2023-07-02T08:07:27;5.45;;;3.60;;
47287;SDS011;33020;53.008;13.558;2023-07-02T08:09:54;5.53;;;3.38;;
47287;SDS011;33020;53.008;13.558;2023-07-02T08:12:21;8.40;;;4.13;;
47287;SDS011;33020;53.008;13.558;2023-07-02T08:14:48;5.05;;;3.78;;
47287;SDS011;33020;53.008;13.558;2023-07-02T08:17:15;7.60;;;4.38;;
47287;SDS011;33020;53.008;13.558;2023-07-02T08:19:42;7.10;;;3.83;;
47287;SDS011;33020;53.008;13.558;2023-07-02T08:22:09;9.18;;;4.88;;
47287;SDS011;33020;53.008;13.558;2023-07-02T08:24:36;7.70;;;4.07;;
47287;SDS011;33020;53.008;13.558;2023-07-02T08:27:03;9.50;;;4.38;;
47287;SDS011;33020;53.008;13.558;2023-07-02T08:29:30;9.70;;;4.75;;
47287;SDS011;33020;53.008;13.558;2023-07-02T08:31:59;11.38;;;5.25;;
47287;SDS011;33020;53.008;13.558;2023-07-02T08:34:26;9.90;;;4.80;;
47287;SDS011;33020;53.008;13.558;2023-07-02T08:36:56;9.18;;;5.10;;
47287;SDS011;33020;53.008;13.558;2023-07-02T08:39:23;11.13;;;5.38;;
47287;SDS011;33020;53.008;13.558;2023-07-02T08:41:50;9.85;;;5.07;;
47287;SDS011;33020;53.008;13.558;2023-07-02T08:44:19;10.60;;;4.70;;
47287;SDS011;33020;53.008;13.558;2023-07-02T08:46:47;9.73;;;4.72;;
47287;SDS011;33020;53.008;13.558;2023-07-02T08:49:17;9.52;;;4.93;;
47287;SDS011;33020;53.008;13.558;2023-07-02T08:51:45;11.40;;;5.32;;
47287;SDS011;33020;53.008;13.558;2023-07-02T08:54:13;9.98;;;5.03;;
47287;SDS011;33020;53.008;13.558;2023-07-02T08:56:40;9.95;;;4.75;;
47287;SDS011;33020;53.008;13.558;2023-07-02T08:59:07;9.38;;;4.82;;
47287;SDS011;33020;53.008;13.558;2023-07-02T09:01:44;10.73;;;5.63;;
47287;SDS011;33020;53.008;13.558;2023-07-02T09:04:30;11.13;;;5.82;;
47287;SDS011;33020;53.008;13.558;2023-07-02T09:07:04;11.48;;;5.50;;
47287;SDS011;33020;53.008;13.558;2023-07-02T09:09:32;9.70;;;6.05;;
47287;SDS011;33020;53.008;13.558;2023-07-02T09:11:59;9.60;;;5.47;;
47287;SDS011;33020;53.008;13.558;2023-07-02T09:14:28;9.55;;;5.90;;
47287;SDS011;33020;53.008;13.558;2023-07-02T09:17:06;8.52;;;6.30;;
47287;SDS011;33020;53.008;13.558;2023-07-02T09:19:36;9.45;;;5.60;;
47287;SDS011;33020;53.008;13.558;2023-07-02T09:22:14;7.55;;;5.05;;
47287;SDS011;33020;53.008;13.558;2023-07-02T09:24:50;7.60;;;4.25;;
47287;SDS011;33020;53.008;13.558;2023-07-02T09:27:19;6.90;;;4.40;;
47287;SDS011;33020;53.008;13.558;2023-07-02T09:29:50;9.27;;;5.38;;
47287;SDS011;33020;53.008;13.558;2023-07-02T09:32:24;12.18;;;5.13;;
47287;SDS011;33020;53.008;13.558;2023-07-02T09:34:55;13.82;;;5.15;;
47287;SDS011;33020;53.008;13.558;2023-07-02T09:37:24;9.85;;;4.93;;
47287;SDS011;33020;53.008;13.558;2023-07-02T09:39:51;9.63;;;6.80;;
47287;SDS011;33020;53.008;13.558;2023-07-02T09:42:18;12.50;;;5.22;;
47287;SDS011;33020;53.008;13.558;2023-07-02T09:44:46;12.15;;;4.90;;
47287;SDS011;33020;53.008;13.558;2023-07-02T09:47:14;9.75;;;4.88;;
47287;SDS011;33020;53.008;13.558;2023-07-02T09:49:54;9.25;;;4.47;;
47287;SDS011;33020;53.008;13.558;2023-07-02T09:52:23;7.72;;;4.72;;
47287;SDS011;33020;53.008;13.558;2023-07-02T09:54:50;10.05;;;5.68;;
47287;SDS011;33020;53.008;13.558;2023-07-02T09:57:17;13.43;;;5.80;;
47287;SDS011;33020;53.008;13.558;2023-07-02T09:59:44;7.50;;;4.90;;
47287;SDS011;33020;53.008;13.558;2023-07-02T10:02:11;11.98;;;5.10;;
47287;SDS011;33020;53.008;13.558;2023-07-02T10:04:42;8.02;;;5.32;;
47287;SDS011;33020;53.008;13.558;2023-07-02T10:07:11;10.75;;;5.40;;
47287;SDS011;33020;53.008;13.558;2023-07-02T10:09:44;8.07;;;5.13;;
47287;SDS011;33020;53.008;13.558;2023-07-02T10:14:54;6.80;;;4.70;;
47287;SDS011;33020;53.008;13.558;2023-07-02T10:17:29;12.98;;;4.65;;
47287;SDS011;33020;53.008;13.558;2023-07-02T10:20:02;7.00;;;4.30;;
47287;SDS011;33020;53.008;13.558;2023-07-02T10:22:43;10.38;;;5.15;;
47287;SDS011;33020;53.008;13.558;2023-07-02T10:25:10;10.05;;;7.93;;
47287;SDS011;33020;53.008;13.558;2023-07-02T10:27:40;12.60;;;5.32;;
47287;SDS011;33020;53.008;13.558;2023-07-02T10:30:09;10.75;;;5.63;;
47287;SDS011;33020;53.008;13.558;2023-07-02T10:32:37;10.27;;;4.57;;
47287;SDS011;33020;53.008;13.558;2023-07-02T10:35:14;11.15;;;5.22;;
47287;SDS011;33020;53.008;13.558;2023-07-02T10:37:44;8.35;;;4.90;;
47287;SDS011;33020;53.008;13.558;2023-07-02T10:40:12;10.18;;;6.43;;
47287;SDS011;33020;53.008;13.558;2023-07-02T10:42:49;7.55;;;4.97;;
47287;SDS011;33020;53.008;13.558;2023-07-02T10:45:16;8.55;;;4.65;;
47287;SDS011;33020;53.008;13.558;2023-07-02T10:47:44;10.65;;;5.32;;
47287;SDS011;33020;53.008;13.558;2023-07-02T10:50:15;10.05;;;5.13;;
47287;SDS011;33020;53.008;13.558;2023-07-02T10:52:46;8.57;;;4.57;;
47287;SDS011;33020;53.008;13.558;2023-07-02T10:55:17;11.13;;;5.43;;
47287;SDS011;33020;53.008;13.558;2023-07-02T10:57:45;8.63;;;4.38;;
47287;SDS011;33020;53.008;13.558;2023-07-02T11:00:12;9.32;;;5.05;;
47287;SDS011;33020;53.008;13.558;2023-07-02T11:02:39;8.60;;;5.88;;
47287;SDS011;33020;53.008;13.558;2023-07-02T11:05:07;11.13;;;5.68;;
47287;SDS011;33020;53.008;13.558;2023-07-02T11:07:39;13.65;;;5.50;;
47287;SDS011;33020;53.008;13.558;2023-07-02T11:10:10;11.07;;;5.35;;
47287;SDS011;33020;53.008;13.558;2023-07-02T11:12:38;11.43;;;5.53;;
47287;SDS011;33020;53.008;13.558;2023-07-02T11:15:09;11.90;;;5.80;;
47287;SDS011;33020;53.008;13.558;2023-07-02T11:17:45;8.48;;;5.55;;
47287;SDS011;33020;53.008;13.558;2023-07-02T11:20:12;10.73;;;6.40;;
47287;SDS011;33020;53.008;13.558;2023-07-02T11:22:40;9.40;;;5.97;;
47287;SDS011;33020;53.008;13.558;2023-07-02T11:25:08;10.30;;;5.95;;
47287;SDS011;33020;53.008;13.558;2023-07-02T11:27:36;11.48;;;6.45;;
47287;SDS011;33020;53.008;13.558;2023-07-02T11:30:04;11.90;;;5.80;;
47287;SDS011;33020;53.008;13.558;2023-07-02T11:32:34;12.38;;;5.65;;
47287;SDS011;33020;53.008;13.558;2023-07-02T11:35:03;12.68;;;5.97;;
47287;SDS011;33020;53.008;13.558;2023-07-02T11:37:30;10.02;;;5.63;;
47287;SDS011;33020;53.008;13.558;2023-07-02T11:39:56;11.85;;;6.50;;
47287;SDS011;33020;53.008;13.558;2023-07-02T11:42:23;9.25;;;5.30;;
47287;SDS011;33020;53.008;13.558;2023-07-02T11:44:50;11.50;;;5.85;;
47287;SDS011;33020;53.008;13.558;2023-07-02T11:47:17;13.07;;;5.80;;
47287;SDS011;33020;53.008;13.558;2023-07-02T11:49:44;8.65;;;5.57;;
47287;SDS011;33020;53.008;13.558;2023-07-02T11:52:10;7.18;;;5.47;;
47287;SDS011;33020;53.008;13.558;2023-07-02T11:54:38;10.90;;;5.85;;
47287;SDS011;33020;53.008;13.558;2023-07-02T11:57:06;10.73;;;6.07;;
47287;SDS011;33020;53.008;13.558;2023-07-02T11:59:33;18.55;;;9.45;;
47287;SDS011;33020;53.008;13.558;2023-07-02T12:01:59;9.75;;;5.40;;
47287;SDS011;33020;53.008;13.558;2023-07-02T12:04:27;9.40;;;6.38;;
47287;SDS011;33020;53.008;13.558;2023-07-02T12:06:55;13.43;;;6.55;;
47287;SDS011;33020;53.008;13.558;2023-07-02T12:09:22;9.88;;;6.22;;
47287;SDS011;33020;53.008;13.558;2023-07-02T12:11:49;9.43;;;5.50;;
47287;SDS011;33020;53.008;13.558;2023-07-02T12:14:16;12.45;;;6.22;;
47287;SDS011;33020;53.008;13.558;2023-07-02T12:16:42;10.38;;;5.85;;
47287;SDS011;33020;53.008;13.558;2023-07-02T12:19:09;11.95;;;6.82;;
47287;SDS011;33020;53.008;13.558;2023-07-02T12:21:36;9.82;;;6.07;;
47287;SDS011;33020;53.008;13.558;2023-07-02T12:24:03;10.35;;;6.07;;
47287;SDS011;33020;53.008;13.558;2023-07-02T12:26:35;10.38;;;6.03;;
47287;SDS011;33020;53.008;13.558;2023-07-02T12:29:02;10.52;;;6.40;;
47287;SDS011;33020;53.008;13.558;2023-07-02T12:31:30;11.02;;;6.07;;
47287;SDS011;33020;53.008;13.558;2023-07-02T12:33:57;9.95;;;6.18;;
47287;SDS011;33020;53.008;13.558;2023-07-02T12:36:24;13.57;;;6.55;;
47287;SDS011;33020;53.008;13.558;2023-07-02T12:38:51;9.75;;;6.22;;
47287;SDS011;33020;53.008;13.558;2023-07-02T12:41:18;11.90;;;6.22;;
47287;SDS011;33020;53.008;13.558;2023-07-02T12:43:44;12.85;;;6.90;;
47287;SDS011;33020;53.008;13.558;2023-07-02T12:46:11;12.73;;;6.32;;
47287;SDS011;33020;53.008;13.558;2023-07-02T12:48:38;12.25;;;6.50;;
47287;SDS011;33020;53.008;13.558;2023-07-02T12:51:06;13.38;;;5.57;;
47287;SDS011;33020;53.008;13.558;2023-07-02T12:53:32;12.57;;;6.55;;
47287;SDS011;33020;53.008;13.558;2023-07-02T12:56:00;17.02;;;6.38;;
47287;SDS011;33020;53.008;13.558;2023-07-02T12:58:27;14.93;;;6.57;;
47287;SDS011;33020;53.008;13.558;2023-07-02T13:00:54;16.77;;;7.05;;
47287;SDS011;33020;53.008;13.558;2023-07-02T13:03:21;12.07;;;5.80;;
47287;SDS011;33020;53.008;13.558;2023-07-02T13:05:50;8.85;;;6.38;;
47287;SDS011;33020;53.008;13.558;2023-07-02T13:08:17;10.32;;;5.72;;
47287;SDS011;33020;53.008;13.558;2023-07-02T13:10:44;13.15;;;6.00;;
47287;SDS011;33020;53.008;13.558;2023-07-02T13:13:12;10.15;;;4.90;;
47287;SDS011;33020;53.008;13.558;2023-07-02T13:15:52;12.65;;;5.93;;
47287;SDS011;33020;53.008;13.558;2023-07-02T13:18:19;6.65;;;4.75;;
47287;SDS011;33020;53.008;13.558;2023-07-02T13:20:46;10.23;;;4.72;;
47287;SDS011;33020;53.008;13.558;2023-07-02T13:23:13;8.80;;;5.05;;
47287;SDS011;33020;53.008;13.558;2023-07-02T13:25:40;8.27;;;5.18;;
47287;SDS011;33020;53.008;13.558;2023-07-02T13:28:10;7.55;;;4.45;;
47287;SDS011;33020;53.008;13.558;2023-07-02T13:30:37;12.48;;;5.35;;
47287;SDS011;33020;53.008;13.558;2023-07-02T13:33:04;10.82;;;5.40;;
47287;SDS011;33020;53.008;13.558;2023-07-02T13:35:31;10.07;;;4.85;;
47287;SDS011;33020;53.008;13.558;2023-07-02T13:37:58;8.88;;;5.25;;
47287;SDS011;33020;53.008;13.558;2023-07-02T13:40:30;8.40;;;5.10;;
47287;SDS011;33020;53.008;13.558;2023-07-02T13:42:57;8.77;;;4.75;;
47287;SDS011;33020;53.008;13.558;2023-07-02T13:45:24;10.30;;;5.50;;
47287;SDS011;33020;53.008;13.558;2023-07-02T13:47:51;9.45;;;5.60;;
47287;SDS011;33020;53.008;13.558;2023-07-02T13:50:19;12.07;;;5.47;;
47287;SDS011;33020;53.008;13.558;2023-07-02T13:52:46;10.48;;;5.18;;
47287;SDS011;33020;53.008;13.558;2023-07-02T13:55:15;12.05;;;5.43;;
47287;SDS011;33020;53.008;13.558;2023-07-02T13:57:42;11.80;;;5.78;;
47287;SDS011;33020;53.008;13.558;2023-07-02T14:00:10;11.43;;;5.68;;
47287;SDS011;33020;53.008;13.558;2023-07-02T14:02:37;8.57;;;5.00;;
47287;SDS011;33020;53.008;13.558;2023-07-02T14:05:05;8.13;;;4.90;;
47287;SDS011;33020;53.008;13.558;2023-07-02T14:07:33;9.07;;;4.80;;
47287;SDS011;33020;53.008;13.558;2023-07-02T14:09:59;9.48;;;5.10;;
47287;SDS011;33020;53.008;13.558;2023-07-02T14:12:27;9.00;;;4.30;;
47287;SDS011;33020;53.008;13.558;2023-07-02T14:14:55;9.80;;;4.88;;
47287;SDS011;33020;53.008;13.558;2023-07-02T14:17:22;9.15;;;4.60;;
47287;SDS011;33020;53.008;13.558;2023-07-02T14:19:52;7.60;;;4.95;;
47287;SDS011;33020;53.008;13.558;2023-07-02T14:22:20;8.38;;;4.93;;
47287;SDS011;33020;53.008;13.558;2023-07-02T14:24:47;7.85;;;4.88;;
47287;SDS011;33020;53.008;13.558;2023-07-02T14:27:14;16.77;;;6.28;;
47287;SDS011;33020;53.008;13.558;2023-07-02T14:29:43;9.95;;;5.50;;
47287;SDS011;33020;53.008;13.558;2023-07-02T14:32:10;9.57;;;5.20;;
47287;SDS011;33020;53.008;13.558;2023-07-02T14:34:37;23.85;;;7.88;;
47287;SDS011;33020;53.008;13.558;2023-07-02T14:37:05;11.25;;;5.38;;
47287;SDS011;33020;53.008;13.558;2023-07-02T14:39:32;8.25;;;4.40;;